sensor_id;sensor_type;location;lat;lon;timestamp;P1;durP1;ratioP1;P2;durP2;ratioP2
40993;SDS011;26722;43.212;27.932;2024-01-15T00:00:15;18.58;;;9.07;;
40993;SDS011;26722;43.212;27.932;2024-01-15T00:02:41;16.63;;;8.25;;
40993;SDS011;26722;43.212;27.932;2024-01-15T00:05:06;16.27;;;8.10;;
40993;SDS011;26722;43.212;27.932;2024-01-15T00:07:32;22.23;;;8.88;;
40993;SDS011;26722;43.212;27.932;2024-01-15T00:09:57;18.42;;;8.20;;
40993;SDS011;26722;43.212;27.932;2024-01-15T00:12:22;18.15;;;8.15;;
40993;SDS011;26722;43.212;27.932;2024-01-15T00:14:48;21.70;;;9.30;;
40993;SDS011;26722;43.212;27.932;2024-01-15T00:17:13;20.25;;;9.93;;
40993;SDS011;26722;43.212;27.932;2024-01-15T00:19:38;22.05;;;10.05;;
40993;SDS011;26722;43.212;27.932;2024-01-15T00:22:03;21.80;;;10.07;;
40993;SDS011;26722;43.212;27.932;2024-01-15T00:24:29;22.70;;;10.88;;
40993;SDS011;26722;43.212;27.932;2024-01-15T00:26:54;22.30;;;12.48;;
40993;SDS011;26722;43.212;27.932;2024-01-15T00:29:20;23.70;;;12.75;;
40993;SDS011;26722;43.212;27.932;2024-01-15T00:31:45;28.70;;;13.52;;
40993;SDS011;26722;43.212;27.932;2024-01-15T00:34:11;27.10;;;12.80;;
40993;SDS011;26722;43.212;27.932;2024-01-15T00:36:36;25.08;;;13.40;;
40993;SDS011;26722;43.212;27.932;2024-01-15T00:39:01;26.55;;;14.13;;
40993;SDS011;26722;43.212;27.932;2024-01-15T00:41:26;30.67;;;14.48;;
40993;SDS011;26722;43.212;27.932;2024-01-15T00:43:53;30.90;;;15.00;;
40993;SDS011;26722;43.212;27.932;2024-01-15T00:46:18;27.73;;;13.85;;
40993;SDS011;26722;43.212;27.932;2024-01-15T00:48:43;36.38;;;15.52;;
40993;SDS011;26722;43.212;27.932;2024-01-15T00:51:09;32.47;;;14.35;;
40993;SDS011;26722;43.212;27.932;2024-01-15T00:53:34;29.73;;;14.48;;
40993;SDS011;26722;43.212;27.932;2024-01-15T00:55:59;26.38;;;14.38;;
40993;SDS011;26722;43.212;27.932;2024-01-15T00:58:25;30.27;;;14.63;;
40993;SDS011;26722;43.212;27.932;2024-01-15T01:00:50;31.05;;;14.45;;
40993;SDS011;26722;43.212;27.932;2024-01-15T01:03:16;27.70;;;14.98;;
40993;SDS011;26722;43.212;27.932;2024-01-15T01:05:41;29.05;;;14.73;;
40993;SDS011;26722;43.212;27.932;2024-01-15T01:08:06;31.40;;;15.13;;
40993;SDS011;26722;43.212;27.932;2024-01-15T01:10:32;28.23;;;15.15;;
40993;SDS011;26722;43.212;27.932;2024-01-15T01:12:57;35.15;;;16.23;;
40993;SDS011;26722;43.212;27.932;2024-01-15T01:15:22;32.65;;;15.18;;
40993;SDS011;26722;43.212;27.932;2024-01-15T01:17:47;29.55;;;15.63;;
40993;SDS011;26722;43.212;27.932;2024-01-15T01:20:13;31.02;;;15.85;;
40993;SDS011;26722;43.212;27.932;2024-01-15T01:22:40;36.17;;;17.10;;
40993;SDS011;26722;43.212;27.932;2024-01-15T01:25:05;36.58;;;17.00;;
40993;SDS011;26722;43.212;27.932;2024-01-15T01:27:31;33.95;;;16.67;;
40993;SDS011;26722;43.212;27.932;2024-01-15T01:29:56;33.60;;;16.30;;
40993;SDS011;26722;43.212;27.932;2024-01-15T01:32:21;28.67;;;16.23;;
40993;SDS011;26722;43.212;27.932;2024-01-15T01:34:46;33.22;;;16.20;;
40993;SDS011;26722;43.212;27.932;2024-01-15T01:37:12;29.05;;;14.82;;
40993;SDS011;26722;43.212;27.932;2024-01-15T01:39:38;30.77;;;15.10;;
40993;SDS011;26722;43.212;27.932;2024-01-15T01:42:03;32.85;;;14.93;;
40993;SDS011;26722;43.212;27.932;2024-01-15T01:44:29;36.15;;;18.33;;
40993;SDS011;26722;43.212;27.932;2024-01-15T01:46:54;44.13;;;19.95;;
40993;SDS011;26722;43.212;27.932;2024-01-15T01:49:19;54.72;;;21.92;;
40993;SDS011;26722;43.212;27.932;2024-01-15T01:51:45;54.88;;;22.35;;
40993;SDS011;26722;43.212;27.932;2024-01-15T01:54:11;46.63;;;21.20;;
40993;SDS011;26722;43.212;27.932;2024-01-15T01:56:38;46.95;;;21.13;;
40993;SDS011;26722;43.212;27.932;2024-01-15T01:59:04;45.55;;;20.95;;
40993;SDS011;26722;43.212;27.932;2024-01-15T02:01:30;48.10;;;20.23;;
40993;SDS011;26722;43.212;27.932;2024-01-15T02:03:56;39.88;;;18.88;;
40993;SDS011;26722;43.212;27.932;2024-01-15T02:06:22;42.03;;;19.30;;
40993;SDS011;26722;43.212;27.932;2024-01-15T02:08:48;28.38;;;13.40;;
40993;SDS011;26722;43.212;27.932;2024-01-15T02:11:13;27.77;;;12.18;;
40993;SDS011;26722;43.212;27.932;2024-01-15T02:13:38;18.65;;;8.15;;
40993;SDS011;26722;43.212;27.932;2024-01-15T02:16:04;15.63;;;7.35;;
40993;SDS011;26722;43.212;27.932;2024-01-15T02:18:29;17.23;;;8.65;;
40993;SDS011;26722;43.212;27.932;2024-01-15T02:21:04;16.55;;;7.90;;
40993;SDS011;26722;43.212;27.932;2024-01-15T02:23:29;18.35;;;7.53;;
40993;SDS011;26722;43.212;27.932;2024-01-15T02:25:54;17.25;;;7.32;;
40993;SDS011;26722;43.212;27.932;2024-01-15T02:28:19;19.52;;;7.78;;
40993;SDS011;26722;43.212;27.932;2024-01-15T02:30:45;15.05;;;6.85;;
40993;SDS011;26722;43.212;27.932;2024-01-15T02:33:11;15.82;;;7.60;;
40993;SDS011;26722;43.212;27.932;2024-01-15T02:35:36;15.13;;;7.30;;
40993;SDS011;26722;43.212;27.932;2024-01-15T02:38:02;16.02;;;8.15;;
40993;SDS011;26722;43.212;27.932;2024-01-15T02:40:28;15.68;;;7.18;;
40993;SDS011;26722;43.212;27.932;2024-01-15T02:42:53;16.08;;;7.95;;
40993;SDS011;26722;43.212;27.932;2024-01-15T02:45:19;18.90;;;8.38;;
40993;SDS011;26722;43.212;27.932;2024-01-15T02:47:44;16.98;;;8.60;;
40993;SDS011;26722;43.212;27.932;2024-01-15T02:50:09;25.13;;;11.82;;
40993;SDS011;26722;43.212;27.932;2024-01-15T02:52:35;26.35;;;11.20;;
40993;SDS011;26722;43.212;27.932;2024-01-15T02:55:00;30.35;;;13.25;;
40993;SDS011;26722;43.212;27.932;2024-01-15T02:57:25;20.58;;;9.48;;
40993;SDS011;26722;43.212;27.932;2024-01-15T02:59:50;21.60;;;8.95;;
40993;SDS011;26722;43.212;27.932;2024-01-15T03:02:16;21.35;;;9.35;;
40993;SDS011;26722;43.212;27.932;2024-01-15T03:04:44;22.20;;;10.02;;
40993;SDS011;26722;43.212;27.932;2024-01-15T03:07:10;21.08;;;9.50;;
40993;SDS011;26722;43.212;27.932;2024-01-15T03:09:35;27.55;;;12.15;;
40993;SDS011;26722;43.212;27.932;2024-01-15T03:12:00;29.95;;;12.85;;
40993;SDS011;26722;43.212;27.932;2024-01-15T03:14:25;25.20;;;12.60;;
40993;SDS011;26722;43.212;27.932;2024-01-15T03:16:51;24.75;;;12.60;;
40993;SDS011;26722;43.212;27.932;2024-01-15T03:19:16;25.90;;;12.48;;
40993;SDS011;26722;43.212;27.932;2024-01-15T03:21:42;26.17;;;12.20;;
40993;SDS011;26722;43.212;27.932;2024-01-15T03:24:07;25.35;;;11.35;;
40993;SDS011;26722;43.212;27.932;2024-01-15T03:26:32;29.70;;;12.75;;
40993;SDS011;26722;43.212;27.932;2024-01-15T03:28:57;26.55;;;12.48;;
40993;SDS011;26722;43.212;27.932;2024-01-15T03:31:23;26.48;;;13.25;;
40993;SDS011;26722;43.212;27.932;2024-01-15T03:33:48;33.00;;;16.08;;
40993;SDS011;26722;43.212;27.932;2024-01-15T03:36:13;33.90;;;14.57;;
40993;SDS011;26722;43.212;27.932;2024-01-15T03:38:40;32.90;;;15.20;;
40993;SDS011;26722;43.212;27.932;2024-01-15T03:41:06;26.30;;;13.38;;
40993;SDS011;26722;43.212;27.932;2024-01-15T03:43:31;22.27;;;10.70;;
40993;SDS011;26722;43.212;27.932;2024-01-15T03:45:57;31.35;;;11.75;;
40993;SDS011;26722;43.212;27.932;2024-01-15T03:48:22;23.88;;;11.02;;
40993;SDS011;26722;43.212;27.932;2024-01-15T03:50:47;23.65;;;11.38;;
40993;SDS011;26722;43.212;27.932;2024-01-15T03:53:12;23.65;;;11.00;;
40993;SDS011;26722;43.212;27.932;2024-01-15T03:55:38;28.45;;;12.25;;
40993;SDS011;26722;43.212;27.932;2024-01-15T03:58:03;25.17;;;12.07;;
40993;SDS011;26722;43.212;27.932;2024-01-15T04:00:28;25.13;;;12.18;;
40993;SDS011;26722;43.212;27.932;2024-01-15T04:02:53;21.98;;;10.18;;
40993;SDS011;26722;43.212;27.932;2024-01-15T04:05:19;23.30;;;11.15;;
40993;SDS011;26722;43.212;27.932;2024-01-15T04:07:44;20.48;;;9.00;;
40993;SDS011;26722;43.212;27.932;2024-01-15T04:10:09;18.55;;;8.93;;
40993;SDS011;26722;43.212;27.932;2024-01-15T04:12:35;19.88;;;8.95;;
40993;SDS011;26722;43.212;27.932;2024-01-15T04:15:00;19.40;;;8.35;;
40993;SDS011;26722;43.212;27.932;2024-01-15T04:17:26;21.77;;;8.57;;
40993;SDS011;26722;43.212;27.932;2024-01-15T04:19:52;16.80;;;7.53;;
40993;SDS011;26722;43.212;27.932;2024-01-15T04:22:17;20.50;;;7.65;;
40993;SDS011;26722;43.212;27.932;2024-01-15T04:24:42;13.88;;;6.72;;
40993;SDS011;26722;43.212;27.932;2024-01-15T04:27:07;14.20;;;7.00;;
40993;SDS011;26722;43.212;27.932;2024-01-15T04:29:33;18.52;;;8.55;;
40993;SDS011;26722;43.212;27.932;2024-01-15T04:31:58;16.30;;;7.68;;
40993;SDS011;26722;43.212;27.932;2024-01-15T04:34:23;19.02;;;7.95;;
40993;SDS011;26722;43.212;27.932;2024-01-15T04:36:48;19.33;;;8.82;;
40993;SDS011;26722;43.212;27.932;2024-01-15T04:39:14;17.83;;;8.30;;
40993;SDS011;26722;43.212;27.932;2024-01-15T04:41:39;18.55;;;8.60;;
40993;SDS011;26722;43.212;27.932;2024-01-15T04:44:04;25.70;;;9.27;;
40993;SDS011;26722;43.212;27.932;2024-01-15T04:46:30;22.13;;;8.95;;
40993;SDS011;26722;43.212;27.932;2024-01-15T04:48:55;20.13;;;8.95;;
40993;SDS011;26722;43.212;27.932;2024-01-15T04:51:20;23.55;;;8.52;;
40993;SDS011;26722;43.212;27.932;2024-01-15T04:53:45;24.15;;;10.20;;
40993;SDS011;26722;43.212;27.932;2024-01-15T04:56:11;20.20;;;9.52;;
40993;SDS011;26722;43.212;27.932;2024-01-15T04:58:36;21.67;;;10.02;;
40993;SDS011;26722;43.212;27.932;2024-01-15T05:01:01;22.23;;;9.40;;
40993;SDS011;26722;43.212;27.932;2024-01-15T05:03:26;21.38;;;10.50;;
40993;SDS011;26722;43.212;27.932;2024-01-15T05:05:52;27.00;;;11.30;;
40993;SDS011;26722;43.212;27.932;2024-01-15T05:08:17;24.30;;;10.80;;
40993;SDS011;26722;43.212;27.932;2024-01-15T05:10:42;27.05;;;10.07;;
40993;SDS011;26722;43.212;27.932;2024-01-15T05:13:08;29.25;;;9.90;;
40993;SDS011;26722;43.212;27.932;2024-01-15T05:15:33;28.10;;;11.25;;
40993;SDS011;26722;43.212;27.932;2024-01-15T05:17:58;27.33;;;11.25;;
40993;SDS011;26722;43.212;27.932;2024-01-15T05:20:24;25.63;;;10.63;;
40993;SDS011;26722;43.212;27.932;2024-01-15T05:22:49;28.05;;;10.65;;
40993;SDS011;26722;43.212;27.932;2024-01-15T05:25:14;27.88;;;10.93;;
40993;SDS011;26722;43.212;27.932;2024-01-15T05:27:39;31.17;;;11.60;;
40993;SDS011;26722;43.212;27.932;2024-01-15T05:30:05;31.15;;;12.95;;
40993;SDS011;26722;43.212;27.932;2024-01-15T05:32:30;31.83;;;11.63;;
40993;SDS011;26722;43.212;27.932;2024-01-15T05:34:55;29.65;;;11.63;;
40993;SDS011;26722;43.212;27.932;2024-01-15T05:37:20;30.92;;;12.82;;
40993;SDS011;26722;43.212;27.932;2024-01-15T05:39:46;32.50;;;13.13;;
40993;SDS011;26722;43.212;27.932;2024-01-15T05:42:11;39.88;;;13.57;;
40993;SDS011;26722;43.212;27.932;2024-01-15T05:44:36;30.45;;;13.02;;
40993;SDS011;26722;43.212;27.932;2024-01-15T05:47:02;37.60;;;16.08;;
40993;SDS011;26722;43.212;27.932;2024-01-15T05:49:29;37.08;;;16.35;;
40993;SDS011;26722;43.212;27.932;2024-01-15T05:51:54;51.30;;;19.80;;
40993;SDS011;26722;43.212;27.932;2024-01-15T05:54:19;44.05;;;16.45;;
40993;SDS011;26722;43.212;27.932;2024-01-15T05:56:45;41.58;;;18.17;;
40993;SDS011;26722;43.212;27.932;2024-01-15T05:59:10;49.33;;;17.90;;
40993;SDS011;26722;43.212;27.932;2024-01-15T06:01:35;38.22;;;17.77;;
40993;SDS011;26722;43.212;27.932;2024-01-15T06:04:01;39.90;;;18.02;;
40993;SDS011;26722;43.212;27.932;2024-01-15T06:06:26;36.60;;;16.05;;
40993;SDS011;26722;43.212;27.932;2024-01-15T06:08:51;38.95;;;15.35;;
40993;SDS011;26722;43.212;27.932;2024-01-15T06:11:16;40.88;;;15.93;;
40993;SDS011;26722;43.212;27.932;2024-01-15T06:13:42;43.67;;;16.48;;
40993;SDS011;26722;43.212;27.932;2024-01-15T06:16:16;45.75;;;17.48;;
40993;SDS011;26722;43.212;27.932;2024-01-15T06:18:42;37.05;;;16.00;;
40993;SDS011;26722;43.212;27.932;2024-01-15T06:21:07;43.15;;;17.70;;
40993;SDS011;26722;43.212;27.932;2024-01-15T06:23:32;46.35;;;18.40;;
40993;SDS011;26722;43.212;27.932;2024-01-15T06:25:58;51.85;;;17.23;;
40993;SDS011;26722;43.212;27.932;2024-01-15T06:28:23;40.78;;;16.27;;
40993;SDS011;26722;43.212;27.932;2024-01-15T06:30:48;48.88;;;18.40;;
40993;SDS011;26722;43.212;27.932;2024-01-15T06:33:14;46.20;;;16.48;;
40993;SDS011;26722;43.212;27.932;2024-01-15T06:35:39;41.70;;;14.80;;
40993;SDS011;26722;43.212;27.932;2024-01-15T06:38:04;34.97;;;14.07;;
40993;SDS011;26722;43.212;27.932;2024-01-15T06:40:29;34.20;;;14.45;;
40993;SDS011;26722;43.212;27.932;2024-01-15T06:42:55;21.05;;;9.15;;
40993;SDS011;26722;43.212;27.932;2024-01-15T06:45:20;32.10;;;15.65;;
40993;SDS011;26722;43.212;27.932;2024-01-15T06:47:45;34.00;;;14.05;;
40993;SDS011;26722;43.212;27.932;2024-01-15T06:50:10;36.33;;;14.40;;
40993;SDS011;26722;43.212;27.932;2024-01-15T06:52:36;33.95;;;13.77;;
40993;SDS011;26722;43.212;27.932;2024-01-15T06:55:01;34.25;;;14.20;;
40993;SDS011;26722;43.212;27.932;2024-01-15T06:57:26;33.50;;;14.45;;
40993;SDS011;26722;43.212;27.932;2024-01-15T06:59:52;42.22;;;13.95;;
40993;SDS011;26722;43.212;27.932;2024-01-15T07:02:17;35.38;;;14.68;;
40993;SDS011;26722;43.212;27.932;2024-01-15T07:04:42;29.17;;;12.32;;
40993;SDS011;26722;43.212;27.932;2024-01-15T07:07:07;33.92;;;11.88;;
40993;SDS011;26722;43.212;27.932;2024-01-15T07:09:33;31.98;;;13.38;;
40993;SDS011;26722;43.212;27.932;2024-01-15T07:11:58;30.48;;;11.80;;
40993;SDS011;26722;43.212;27.932;2024-01-15T07:14:24;25.17;;;11.90;;
40993;SDS011;26722;43.212;27.932;2024-01-15T07:16:49;29.13;;;11.60;;
40993;SDS011;26722;43.212;27.932;2024-01-15T07:19:15;32.35;;;12.98;;
40993;SDS011;26722;43.212;27.932;2024-01-15T07:21:40;31.10;;;12.75;;
40993;SDS011;26722;43.212;27.932;2024-01-15T07:24:07;37.30;;;12.35;;
40993;SDS011;26722;43.212;27.932;2024-01-15T07:26:33;64.35;;;18.85;;
40993;SDS011;26722;43.212;27.932;2024-01-15T07:28:58;49.08;;;18.42;;
40993;SDS011;26722;43.212;27.932;2024-01-15T07:31:23;39.55;;;15.60;;
40993;SDS011;26722;43.212;27.932;2024-01-15T07:33:49;43.20;;;15.52;;
40993;SDS011;26722;43.212;27.932;2024-01-15T07:36:14;50.97;;;18.65;;
40993;SDS011;26722;43.212;27.932;2024-01-15T07:38:39;62.00;;;24.50;;
40993;SDS011;26722;43.212;27.932;2024-01-15T07:41:05;73.18;;;26.30;;
40993;SDS011;26722;43.212;27.932;2024-01-15T07:43:30;46.63;;;17.02;;
40993;SDS011;26722;43.212;27.932;2024-01-15T07:45:55;43.97;;;21.13;;
40993;SDS011;26722;43.212;27.932;2024-01-15T07:48:20;41.58;;;18.63;;
40993;SDS011;26722;43.212;27.932;2024-01-15T07:50:46;57.30;;;23.98;;
40993;SDS011;26722;43.212;27.932;2024-01-15T07:53:11;61.10;;;23.27;;
40993;SDS011;26722;43.212;27.932;2024-01-15T07:55:36;61.97;;;24.95;;
40993;SDS011;26722;43.212;27.932;2024-01-15T07:58:02;82.90;;;29.50;;
40993;SDS011;26722;43.212;27.932;2024-01-15T08:00:28;51.35;;;20.83;;
40993;SDS011;26722;43.212;27.932;2024-01-15T08:02:53;53.75;;;23.05;;
40993;SDS011;26722;43.212;27.932;2024-01-15T08:05:18;71.93;;;27.98;;
40993;SDS011;26722;43.212;27.932;2024-01-15T08:07:44;59.90;;;25.27;;
40993;SDS011;26722;43.212;27.932;2024-01-15T08:10:09;46.28;;;18.83;;
40993;SDS011;26722;43.212;27.932;2024-01-15T08:12:34;40.30;;;13.10;;
40993;SDS011;26722;43.212;27.932;2024-01-15T08:15:00;67.63;;;25.98;;
40993;SDS011;26722;43.212;27.932;2024-01-15T08:17:25;40.45;;;16.83;;
40993;SDS011;26722;43.212;27.932;2024-01-15T08:19:54;25.80;;;12.55;;
40993;SDS011;26722;43.212;27.932;2024-01-15T08:22:19;41.60;;;15.95;;
40993;SDS011;26722;43.212;27.932;2024-01-15T08:24:44;84.60;;;33.65;;
40993;SDS011;26722;43.212;27.932;2024-01-15T08:27:10;91.10;;;35.28;;
40993;SDS011;26722;43.212;27.932;2024-01-15T08:29:35;81.25;;;35.30;;
40993;SDS011;26722;43.212;27.932;2024-01-15T08:32:01;75.97;;;34.17;;
40993;SDS011;26722;43.212;27.932;2024-01-15T08:34:26;77.40;;;31.27;;
40993;SDS011;26722;43.212;27.932;2024-01-15T08:36:51;73.47;;;30.60;;
40993;SDS011;26722;43.212;27.932;2024-01-15T08:39:17;65.38;;;28.52;;
40993;SDS011;26722;43.212;27.932;2024-01-15T08:41:44;64.90;;;25.23;;
40993;SDS011;26722;43.212;27.932;2024-01-15T08:44:09;47.22;;;22.60;;
40993;SDS011;26722;43.212;27.932;2024-01-15T08:46:34;51.97;;;22.27;;
40993;SDS011;26722;43.212;27.932;2024-01-15T08:49:00;40.75;;;18.25;;
40993;SDS011;26722;43.212;27.932;2024-01-15T08:51:25;42.15;;;17.90;;
40993;SDS011;26722;43.212;27.932;2024-01-15T08:53:50;29.00;;;12.93;;
40993;SDS011;26722;43.212;27.932;2024-01-15T08:56:15;21.80;;;11.43;;
40993;SDS011;26722;43.212;27.932;2024-01-15T08:58:41;26.30;;;12.40;;
40993;SDS011;26722;43.212;27.932;2024-01-15T09:01:06;28.42;;;12.68;;
40993;SDS011;26722;43.212;27.932;2024-01-15T09:03:31;24.80;;;11.45;;
40993;SDS011;26722;43.212;27.932;2024-01-15T09:05:58;23.33;;;11.18;;
40993;SDS011;26722;43.212;27.932;2024-01-15T09:08:24;23.50;;;12.52;;
40993;SDS011;26722;43.212;27.932;2024-01-15T09:10:49;21.48;;;11.18;;
40993;SDS011;26722;43.212;27.932;2024-01-15T09:13:15;23.88;;;11.10;;
40993;SDS011;26722;43.212;27.932;2024-01-15T09:15:40;21.38;;;10.45;;
40993;SDS011;26722;43.212;27.932;2024-01-15T09:18:05;22.88;;;11.63;;
40993;SDS011;26722;43.212;27.932;2024-01-15T09:20:31;21.98;;;10.93;;
40993;SDS011;26722;43.212;27.932;2024-01-15T09:22:56;22.52;;;10.60;;
40993;SDS011;26722;43.212;27.932;2024-01-15T09:25:21;25.70;;;10.30;;
40993;SDS011;26722;43.212;27.932;2024-01-15T09:27:47;22.42;;;10.88;;
40993;SDS011;26722;43.212;27.932;2024-01-15T09:30:13;19.15;;;10.50;;
40993;SDS011;26722;43.212;27.932;2024-01-15T09:32:38;19.48;;;9.98;;
40993;SDS011;26722;43.212;27.932;2024-01-15T09:35:03;23.70;;;9.93;;
40993;SDS011;26722;43.212;27.932;2024-01-15T09:37:29;22.00;;;10.07;;
40993;SDS011;26722;43.212;27.932;2024-01-15T09:39:54;17.50;;;10.43;;
40993;SDS011;26722;43.212;27.932;2024-01-15T09:42:20;22.95;;;11.32;;
40993;SDS011;26722;43.212;27.932;2024-01-15T09:44:46;20.70;;;10.68;;
40993;SDS011;26722;43.212;27.932;2024-01-15T09:47:12;26.90;;;10.57;;
40993;SDS011;26722;43.212;27.932;2024-01-15T09:49:38;24.25;;;10.10;;
40993;SDS011;26722;43.212;27.932;2024-01-15T09:52:05;19.67;;;11.25;;
40993;SDS011;26722;43.212;27.932;2024-01-15T09:54:31;23.58;;;10.48;;
40993;SDS011;26722;43.212;27.932;2024-01-15T09:56:56;26.60;;;11.20;;
40993;SDS011;26722;43.212;27.932;2024-01-15T09:59:24;21.63;;;10.07;;
40993;SDS011;26722;43.212;27.932;2024-01-15T10:01:50;20.55;;;11.07;;
40993;SDS011;26722;43.212;27.932;2024-01-15T10:04:16;19.25;;;10.45;;
40993;SDS011;26722;43.212;27.932;2024-01-15T10:06:43;26.02;;;11.30;;
40993;SDS011;26722;43.212;27.932;2024-01-15T10:09:10;27.73;;;11.52;;
40993;SDS011;26722;43.212;27.932;2024-01-15T10:11:39;26.95;;;12.48;;
40993;SDS011;26722;43.212;27.932;2024-01-15T10:14:04;24.02;;;11.82;;
40993;SDS011;26722;43.212;27.932;2024-01-15T10:16:30;31.98;;;12.95;;
40993;SDS011;26722;43.212;27.932;2024-01-15T10:18:55;32.85;;;12.98;;
40993;SDS011;26722;43.212;27.932;2024-01-15T10:21:20;25.10;;;12.20;;
40993;SDS011;26722;43.212;27.932;2024-01-15T10:23:46;29.65;;;13.18;;
40993;SDS011;26722;43.212;27.932;2024-01-15T10:26:11;32.28;;;13.55;;
40993;SDS011;26722;43.212;27.932;2024-01-15T10:28:40;31.52;;;13.35;;
40993;SDS011;26722;43.212;27.932;2024-01-15T10:31:06;34.33;;;12.25;;
40993;SDS011;26722;43.212;27.932;2024-01-15T10:33:31;29.05;;;12.02;;
40993;SDS011;26722;43.212;27.932;2024-01-15T10:35:57;25.35;;;11.15;;
40993;SDS011;26722;43.212;27.932;2024-01-15T10:38:23;26.65;;;11.45;;
40993;SDS011;26722;43.212;27.932;2024-01-15T10:40:52;26.45;;;12.35;;
40993;SDS011;26722;43.212;27.932;2024-01-15T10:43:18;21.85;;;10.02;;
40993;SDS011;26722;43.212;27.932;2024-01-15T10:45:44;19.73;;;9.73;;
40993;SDS011;26722;43.212;27.932;2024-01-15T10:48:10;18.70;;;9.15;;
40993;SDS011;26722;43.212;27.932;2024-01-15T10:50:35;18.13;;;9.27;;
40993;SDS011;26722;43.212;27.932;2024-01-15T10:53:01;16.45;;;8.80;;
40993;SDS011;26722;43.212;27.932;2024-01-15T10:55:26;15.85;;;8.65;;
40993;SDS011;26722;43.212;27.932;2024-01-15T10:57:52;13.85;;;7.82;;
40993;SDS011;26722;43.212;27.932;2024-01-15T11:00:18;15.43;;;8.27;;
40993;SDS011;26722;43.212;27.932;2024-01-15T11:02:44;15.43;;;8.32;;
40993;SDS011;26722;43.212;27.932;2024-01-15T11:05:10;15.75;;;8.82;;
40993;SDS011;26722;43.212;27.932;2024-01-15T11:07:35;17.25;;;8.20;;
40993;SDS011;26722;43.212;27.932;2024-01-15T11:10:02;14.55;;;7.93;;
40993;SDS011;26722;43.212;27.932;2024-01-15T11:12:28;17.50;;;9.93;;
40993;SDS011;26722;43.212;27.932;2024-01-15T11:15:00;15.35;;;8.82;;
40993;SDS011;26722;43.212;27.932;2024-01-15T11:17:26;16.85;;;9.07;;
40993;SDS011;26722;43.212;27.932;2024-01-15T11:19:52;18.60;;;9.10;;
40993;SDS011;26722;43.212;27.932;2024-01-15T11:24:55;17.67;;;9.57;;
40993;SDS011;26722;43.212;27.932;2024-01-15T11:27:39;18.88;;;9.23;;
40993;SDS011;26722;43.212;27.932;2024-01-15T11:30:07;15.55;;;8.60;;
40993;SDS011;26722;43.212;27.932;2024-01-15T11:32:34;15.82;;;8.82;;
40993;SDS011;26722;43.212;27.932;2024-01-15T11:35:01;17.42;;;9.20;;
40993;SDS011;26722;43.212;27.932;2024-01-15T11:37:28;16.88;;;9.20;;
40993;SDS011;26722;43.212;27.932;2024-01-15T11:39:54;18.98;;;10.93;;
40993;SDS011;26722;43.212;27.932;2024-01-15T11:42:20;25.60;;;12.30;;
40993;SDS011;26722;43.212;27.932;2024-01-15T11:44:45;28.25;;;12.98;;
40993;SDS011;26722;43.212;27.932;2024-01-15T11:47:11;22.60;;;11.85;;
40993;SDS011;26722;43.212;27.932;2024-01-15T11:49:56;23.98;;;11.98;;
40993;SDS011;26722;43.212;27.932;2024-01-15T11:52:23;23.58;;;12.15;;
40993;SDS011;26722;43.212;27.932;2024-01-15T11:57:22;25.17;;;12.10;;
40993;SDS011;26722;43.212;27.932;2024-01-15T11:59:50;22.15;;;11.48;;
40993;SDS011;26722;43.212;27.932;2024-01-15T12:02:16;22.20;;;10.98;;
40993;SDS011;26722;43.212;27.932;2024-01-15T12:04:41;32.80;;;12.57;;
40993;SDS011;26722;43.212;27.932;2024-01-15T12:07:06;25.60;;;12.48;;
40993;SDS011;26722;43.212;27.932;2024-01-15T12:09:31;21.48;;;11.52;;
40993;SDS011;26722;43.212;27.932;2024-01-15T12:12:02;16.85;;;8.95;;
40993;SDS011;26722;43.212;27.932;2024-01-15T12:14:31;17.25;;;9.25;;
40993;SDS011;26722;43.212;27.932;2024-01-15T12:16:56;19.85;;;8.80;;
40993;SDS011;26722;43.212;27.932;2024-01-15T12:19:21;22.65;;;9.00;;
40993;SDS011;26722;43.212;27.932;2024-01-15T12:21:48;22.73;;;9.10;;
40993;SDS011;26722;43.212;27.932;2024-01-15T12:24:13;19.98;;;8.23;;
40993;SDS011;26722;43.212;27.932;2024-01-15T12:26:38;18.45;;;8.50;;
40993;SDS011;26722;43.212;27.932;2024-01-15T12:29:06;17.20;;;8.05;;
40993;SDS011;26722;43.212;27.932;2024-01-15T12:31:31;23.05;;;8.52;;
40993;SDS011;26722;43.212;27.932;2024-01-15T12:33:57;16.35;;;8.18;;
40993;SDS011;26722;43.212;27.932;2024-01-15T12:36:22;18.98;;;8.60;;
40993;SDS011;26722;43.212;27.932;2024-01-15T12:38:47;16.70;;;8.80;;
40993;SDS011;26722;43.212;27.932;2024-01-15T12:41:13;21.17;;;8.15;;
40993;SDS011;26722;43.212;27.932;2024-01-15T12:43:38;16.85;;;9.05;;
40993;SDS011;26722;43.212;27.932;2024-01-15T12:46:05;15.75;;;8.80;;
40993;SDS011;26722;43.212;27.932;2024-01-15T12:48:30;16.92;;;8.13;;
40993;SDS011;26722;43.212;27.932;2024-01-15T12:50:56;18.50;;;8.38;;
40993;SDS011;26722;43.212;27.932;2024-01-15T12:53:21;18.65;;;8.07;;
40993;SDS011;26722;43.212;27.932;2024-01-15T12:55:46;21.65;;;7.88;;
40993;SDS011;26722;43.212;27.932;2024-01-15T12:58:12;21.95;;;7.90;;
40993;SDS011;26722;43.212;27.932;2024-01-15T13:00:37;21.35;;;8.50;;
40993;SDS011;26722;43.212;27.932;2024-01-15T13:03:02;19.52;;;8.35;;
40993;SDS011;26722;43.212;27.932;2024-01-15T13:05:28;15.45;;;8.45;;
40993;SDS011;26722;43.212;27.932;2024-01-15T13:07:54;18.75;;;8.95;;
40993;SDS011;26722;43.212;27.932;2024-01-15T13:10:19;18.52;;;9.68;;
40993;SDS011;26722;43.212;27.932;2024-01-15T13:12:45;18.33;;;8.85;;
40993;SDS011;26722;43.212;27.932;2024-01-15T13:15:10;17.77;;;9.07;;
40993;SDS011;26722;43.212;27.932;2024-01-15T13:17:38;19.48;;;9.43;;
40993;SDS011;26722;43.212;27.932;2024-01-15T13:20:05;20.92;;;10.25;;
40993;SDS011;26722;43.212;27.932;2024-01-15T13:22:30;19.60;;;9.63;;
40993;SDS011;26722;43.212;27.932;2024-01-15T13:24:57;17.10;;;9.15;;
40993;SDS011;26722;43.212;27.932;2024-01-15T13:27:22;20.02;;;9.65;;
40993;SDS011;26722;43.212;27.932;2024-01-15T13:29:48;19.65;;;9.05;;
40993;SDS011;26722;43.212;27.932;2024-01-15T13:32:13;20.27;;;9.70;;
40993;SDS011;26722;43.212;27.932;2024-01-15T13:34:42;18.45;;;9.27;;
40993;SDS011;26722;43.212;27.932;2024-01-15T13:37:07;20.90;;;9.43;;
40993;SDS011;26722;43.212;27.932;2024-01-15T13:39:34;20.58;;;9.88;;
40993;SDS011;26722;43.212;27.932;2024-01-15T13:42:00;21.42;;;10.10;;
40993;SDS011;26722;43.212;27.932;2024-01-15T13:44:25;23.55;;;9.43;;
40993;SDS011;26722;43.212;27.932;2024-01-15T13:46:51;21.55;;;9.93;;
40993;SDS011;26722;43.212;27.932;2024-01-15T13:49:17;17.35;;;8.93;;
40993;SDS011;26722;43.212;27.932;2024-01-15T13:51:43;23.63;;;9.63;;
40993;SDS011;26722;43.212;27.932;2024-01-15T13:54:08;17.05;;;9.05;;
40993;SDS011;26722;43.212;27.932;2024-01-15T13:56:34;20.38;;;10.45;;
40993;SDS011;26722;43.212;27.932;2024-01-15T13:59:00;16.88;;;9.43;;
40993;SDS011;26722;43.212;27.932;2024-01-15T14:01:25;22.70;;;11.25;;
40993;SDS011;26722;43.212;27.932;2024-01-15T14:03:52;18.63;;;9.43;;
40993;SDS011;26722;43.212;27.932;2024-01-15T14:06:17;20.77;;;10.57;;
40993;SDS011;26722;43.212;27.932;2024-01-15T14:08:42;18.58;;;10.52;;